createdAt,value
2023-03-11T00:00:36.208Z,55.10
2023-03-11T00:03:06.361Z,55.10
2023-03-11T00:05:37.209Z,55.10
2023-03-11T00:08:07.175Z,55.60
2023-03-11T00:10:37.185Z,55.10
2023-03-11T00:13:06.913Z,55.10
2023-03-11T00:15:36.700Z,55.20
2023-03-11T00:18:05.289Z,55.50
2023-03-11T00:20:36.571Z,55.10
2023-03-11T00:23:05.643Z,55.10
2023-03-11T00:25:35.355Z,55.10
2023-03-11T00:28:03.294Z,55.10
2023-03-11T00:30:31.483Z,55.00
2023-03-11T00:33:01.586Z,54.90
2023-03-11T00:35:31.817Z,54.90
2023-03-11T00:38:02.047Z,54.90
2023-03-11T00:40:32.328Z,54.90
2023-03-11T00:43:04.142Z,54.90
2023-03-11T00:45:32.689Z,54.80
2023-03-11T00:48:02.099Z,54.80
2023-03-11T00:50:32.409Z,54.80
2023-03-11T00:53:01.110Z,54.80
2023-03-11T00:55:31.854Z,54.90
2023-03-11T00:58:02.964Z,54.90
2023-03-11T01:00:38.925Z,54.80
2023-03-11T01:03:08.345Z,54.80
2023-03-11T01:05:36.747Z,54.80
2023-03-11T01:08:05.298Z,54.80
2023-03-11T01:10:37.037Z,54.80
2023-03-11T01:13:06.462Z,54.80
2023-03-11T01:15:37.407Z,54.80
2023-03-11T01:18:06.685Z,54.80
2023-03-11T01:20:37.224Z,54.80
2023-03-11T01:23:06.453Z,54.90
2023-03-11T01:25:34.452Z,54.90
2023-03-11T01:28:02.531Z,55.00
2023-03-11T01:30:31.637Z,54.90
2023-03-11T01:32:59.887Z,55.00
2023-03-11T01:35:30.929Z,55.00
2023-03-11T01:38:00.764Z,54.90
2023-03-11T01:40:31.962Z,54.80
2023-03-11T01:43:04.057Z,54.80
2023-03-11T01:45:41.592Z,54.80
2023-03-11T01:48:11.855Z,54.70
2023-03-11T01:50:44.664Z,54.80
2023-03-11T01:53:15.036Z,54.80
2023-03-11T01:55:44.915Z,54.80
2023-03-11T01:58:17.338Z,54.80
2023-03-11T02:00:45.706Z,54.80
2023-03-11T02:03:20.177Z,54.80
2023-03-11T02:05:50.384Z,54.80
2023-03-11T02:08:19.678Z,54.80
2023-03-11T02:10:49.405Z,54.70
2023-03-11T02:13:18.048Z,54.70
2023-03-11T02:15:46.676Z,54.80
2023-03-11T02:18:18.403Z,54.70
2023-03-11T02:20:53.765Z,54.70
2023-03-11T02:23:29.757Z,54.70
2023-03-11T02:26:05.434Z,54.70
2023-03-11T02:28:37.903Z,54.70
2023-03-11T02:31:06.410Z,54.70
2023-03-11T02:33:38.010Z,54.80
2023-03-11T02:36:07.300Z,54.80
2023-03-11T02:38:35.440Z,54.80
2023-03-11T02:41:04.164Z,54.80
2023-03-11T02:43:39.565Z,54.70
2023-03-11T02:46:10.525Z,54.80
2023-03-11T02:48:39.968Z,55.30
2023-03-11T02:51:08.282Z,54.80
2023-03-11T02:53:42.617Z,54.80
2023-03-11T02:56:11.328Z,54.80
2023-03-11T02:58:41.063Z,54.90
2023-03-11T03:01:10.846Z,54.90
2023-03-11T03:03:40.053Z,54.90
2023-03-11T03:06:08.415Z,54.80
2023-03-11T03:08:36.425Z,54.90
2023-03-11T03:11:04.918Z,54.90
2023-03-11T03:13:33.028Z,54.90
2023-03-11T03:16:03.701Z,54.90
2023-03-11T03:18:32.224Z,55.40
2023-03-11T03:21:01.330Z,55.00
2023-03-11T03:23:29.510Z,55.00
2023-03-11T03:25:58.275Z,55.00
2023-03-11T03:28:27.001Z,55.00
2023-03-11T03:30:55.189Z,54.90
2023-03-11T03:33:24.870Z,55.00
2023-03-11T03:35:53.016Z,55.00
2023-03-11T03:38:24.824Z,55.00
2023-03-11T03:40:54.430Z,55.00
2023-03-11T03:43:23.093Z,55.10
2023-03-11T03:45:58.847Z,55.10
2023-03-11T03:48:31.411Z,55.10
2023-03-11T03:51:05.168Z,55.10
2023-03-11T03:53:35.456Z,55.10
2023-03-11T03:56:05.085Z,55.10
2023-03-11T03:58:35.210Z,55.00
2023-03-11T04:01:04.389Z,55.00
2023-03-11T04:03:35.927Z,55.00
2023-03-11T04:06:11.690Z,55.00
2023-03-11T04:08:40.386Z,55.00
2023-03-11T04:11:09.977Z,55.00
2023-03-11T04:13:38.248Z,55.00
2023-03-11T04:16:08.743Z,54.90
2023-03-11T04:18:38.528Z,54.90
2023-03-11T04:21:08.954Z,54.80
2023-03-11T04:23:37.331Z,54.80
2023-03-11T04:26:06.616Z,54.70
2023-03-11T04:28:36.905Z,54.70
2023-03-11T04:31:05.256Z,54.70
2023-03-11T04:33:34.845Z,54.50
2023-03-11T04:36:09.100Z,54.50
2023-03-11T04:38:38.544Z,54.40
2023-03-11T04:41:08.918Z,54.30
2023-03-11T04:43:39.845Z,54.20
2023-03-11T04:46:08.047Z,54.10
2023-03-11T04:48:36.525Z,54.10
2023-03-11T04:51:05.082Z,54.00
2023-03-11T04:53:34.880Z,54.00
2023-03-11T04:56:03.124Z,54.00
2023-03-11T04:58:31.917Z,54.10
2023-03-11T05:00:59.943Z,54.10
2023-03-11T05:03:28.448Z,54.00
2023-03-11T05:05:57.435Z,54.00
2023-03-11T05:08:26.350Z,54.00
2023-03-11T05:10:55.830Z,54.10
2023-03-11T05:13:24.583Z,54.10
2023-03-11T05:15:54.027Z,54.10
2023-03-11T05:18:22.650Z,54.10
2023-03-11T05:20:51.646Z,54.20
2023-03-11T05:23:23.114Z,54.20
2023-03-11T05:25:51.111Z,54.20
2023-03-11T05:28:20.499Z,54.20
2023-03-11T05:30:52.556Z,54.10
2023-03-11T05:33:21.293Z,54.20
2023-03-11T05:35:51.738Z,54.20
2023-03-11T05:38:20.887Z,54.20
2023-03-11T05:40:48.879Z,54.30
2023-03-11T05:43:17.209Z,54.30
2023-03-11T05:45:53.045Z,54.30
2023-03-11T05:48:21.254Z,54.30
2023-03-11T05:50:49.232Z,54.30
2023-03-11T05:53:18.844Z,54.40
2023-03-11T05:55:46.794Z,54.30
2023-03-11T05:58:15.036Z,54.40
2023-03-11T06:00:43.265Z,54.40
2023-03-11T06:03:12.864Z,54.40
2023-03-11T06:05:46.446Z,54.30
2023-03-11T06:08:14.719Z,54.30
2023-03-11T06:10:43.324Z,54.30
2023-03-11T06:13:12.209Z,54.30
2023-03-11T06:15:48.535Z,54.20
2023-03-11T06:18:18.586Z,54.20
2023-03-11T06:20:47.104Z,54.30
2023-03-11T06:23:15.374Z,54.30
2023-03-11T06:25:43.511Z,54.30
2023-03-11T06:28:13.699Z,54.40
2023-03-11T06:30:45.284Z,54.40
2023-03-11T06:33:16.451Z,54.50
2023-03-11T06:35:46.355Z,54.50
2023-03-11T06:38:14.280Z,54.50
2023-03-11T06:40:42.359Z,54.50
2023-03-11T06:43:13.094Z,54.50
2023-03-11T06:45:43.210Z,54.40
2023-03-11T06:48:11.638Z,54.40
2023-03-11T06:50:40.808Z,54.40
2023-03-11T06:53:11.121Z,54.50
2023-03-11T06:55:39.462Z,54.40
2023-03-11T06:58:07.389Z,54.40
2023-03-11T07:00:35.684Z,54.40
2023-03-11T07:03:04.566Z,54.40
2023-03-11T07:05:33.126Z,54.50
2023-03-11T07:08:06.907Z,54.60
2023-03-11T07:10:36.557Z,54.70
2023-03-11T07:13:04.752Z,54.60
2023-03-11T07:15:32.607Z,54.60
2023-03-11T07:18:00.726Z,54.50
2023-03-11T07:20:28.870Z,54.40
2023-03-11T07:22:56.733Z,54.40
2023-03-11T07:25:24.691Z,54.40
2023-03-11T07:27:53.951Z,54.40
2023-03-11T07:30:22.136Z,54.30
2023-03-11T07:32:49.961Z,54.20
2023-03-11T07:35:18.058Z,54.10
2023-03-11T07:37:45.873Z,54.00
2023-03-11T07:40:15.034Z,54.00
2023-03-11T07:42:42.953Z,53.90
2023-03-11T07:45:14.009Z,53.90
2023-03-11T07:47:42.031Z,54.10
2023-03-11T07:50:11.100Z,53.80
2023-03-11T07:52:39.058Z,53.80
2023-03-11T07:55:07.794Z,53.90
2023-03-11T07:57:36.190Z,54.00
2023-03-11T08:00:05.332Z,54.10
2023-03-11T08:02:41.087Z,54.30
2023-03-11T08:05:10.020Z,54.30
2023-03-11T08:07:38.017Z,54.30
2023-03-11T08:10:07.118Z,54.30
2023-03-11T08:12:35.263Z,54.50
2023-03-11T08:15:03.400Z,54.40
2023-03-11T08:17:31.332Z,54.50
2023-03-11T08:20:01.575Z,54.60
2023-03-11T08:22:30.131Z,54.40
2023-03-11T08:24:58.380Z,54.40
2023-03-11T08:27:28.578Z,53.90
2023-03-11T08:29:56.570Z,53.80
2023-03-11T08:32:24.559Z,53.70
2023-03-11T08:34:52.709Z,53.40
2023-03-11T08:37:24.340Z,53.30
2023-03-11T08:39:52.458Z,53.10
2023-03-11T08:42:21.135Z,53.70
2023-03-11T08:44:49.081Z,54.90
2023-03-11T08:47:17.338Z,56.70
2023-03-11T08:49:45.388Z,59.20
2023-03-11T08:52:13.290Z,62.20
2023-03-11T08:54:42.683Z,64.20
2023-03-11T08:57:10.825Z,63.70
2023-03-11T08:59:39.135Z,63.60
2023-03-11T09:02:07.044Z,62.40
2023-03-11T09:04:35.328Z,60.10
2023-03-11T09:07:03.325Z,58.40
2023-03-11T09:09:31.784Z,57.00
2023-03-11T09:12:01.309Z,55.20
2023-03-11T09:14:29.387Z,53.40
2023-03-11T09:16:57.466Z,52.60
2023-03-11T09:19:25.370Z,51.70
2023-03-11T09:21:53.565Z,50.50
2023-03-11T09:24:21.550Z,48.90
2023-03-11T09:26:49.782Z,48.10
2023-03-11T09:29:19.156Z,45.70
2023-03-11T09:31:47.404Z,45.90
2023-03-11T09:34:16.297Z,45.30
2023-03-11T09:36:45.094Z,45.10
2023-03-11T09:39:12.968Z,45.10
2023-03-11T09:41:57.480Z,43.90
2023-03-11T09:44:34.943Z,40.50
2023-03-11T09:47:33.733Z,39.10
2023-03-11T09:50:18.266Z,37.60
2023-03-11T09:52:55.604Z,37.60
2023-03-11T09:55:40.176Z,37.30
2023-03-11T09:58:32.808Z,35.90
2023-03-11T10:01:02.687Z,35.30
2023-03-11T10:03:33.897Z,36.00
2023-03-11T10:06:09.069Z,36.80
2023-03-11T10:08:44.458Z,36.10
2023-03-11T10:11:28.357Z,36.30
2023-03-11T10:14:06.859Z,36.40
2023-03-11T10:16:42.704Z,37.70
2023-03-11T10:19:17.746Z,39.90
2023-03-11T10:21:53.961Z,42.10
2023-03-11T10:24:54.234Z,42.20
2023-03-11T10:27:27.387Z,40.30
2023-03-11T10:30:01.500Z,39.80
2023-03-11T10:32:39.412Z,38.80
2023-03-11T10:35:17.750Z,37.90
2023-03-11T10:37:51.623Z,36.50
2023-03-11T10:40:27.048Z,37.20
2023-03-11T10:42:58.144Z,37.50
2023-03-11T10:45:28.454Z,38.80
2023-03-11T10:47:58.910Z,40.10
2023-03-11T10:50:27.186Z,40.00
2023-03-11T10:53:10.094Z,39.30
2023-03-11T10:55:47.855Z,38.40
2023-03-11T10:58:17.470Z,38.40
2023-03-11T11:00:45.914Z,38.60
2023-03-11T11:03:24.035Z,38.50
2023-03-11T11:06:00.451Z,38.90
2023-03-11T11:08:28.545Z,40.10
2023-03-11T11:10:57.879Z,41.10
2023-03-11T11:13:27.472Z,40.90
2023-03-11T11:15:58.972Z,40.30
2023-03-11T11:18:31.895Z,39.00
2023-03-11T11:21:03.647Z,37.70
2023-03-11T11:23:39.079Z,36.70
2023-03-11T11:26:15.273Z,36.30
2023-03-11T11:28:44.491Z,36.00
2023-03-11T11:31:24.294Z,36.20
2023-03-11T11:33:55.577Z,36.10
2023-03-11T11:36:27.950Z,37.40
2023-03-11T11:38:57.086Z,37.50
2023-03-11T11:41:28.427Z,37.50
2023-03-11T11:44:00.082Z,37.80
2023-03-11T11:46:32.301Z,37.90
2023-03-11T11:49:12.621Z,37.80
2023-03-11T11:51:44.754Z,36.90
2023-03-11T11:54:18.919Z,37.20
2023-03-11T11:56:46.980Z,36.60
2023-03-11T11:59:19.325Z,36.70
2023-03-11T12:01:58.036Z,36.20
2023-03-11T12:04:46.605Z,35.70
2023-03-11T12:07:25.261Z,35.40
2023-03-11T12:10:10.101Z,35.70
2023-03-11T12:13:06.008Z,35.00
2023-03-11T12:15:40.612Z,35.20
2023-03-11T12:18:16.281Z,35.10
2023-03-11T12:20:52.313Z,34.70
2023-03-11T12:23:27.406Z,34.80
2023-03-11T12:26:17.432Z,35.10
2023-03-11T12:28:52.049Z,34.60
2023-03-11T12:31:21.398Z,34.80
2023-03-11T12:33:52.042Z,35.30
2023-03-11T12:36:25.720Z,35.30
2023-03-11T12:38:55.549Z,35.70
2023-03-11T12:41:33.527Z,36.20
2023-03-11T12:44:04.847Z,36.20
2023-03-11T12:47:09.647Z,36.40
2023-03-11T12:49:39.293Z,35.70
2023-03-11T12:52:22.977Z,36.20
2023-03-11T12:55:38.874Z,35.40
2023-03-11T12:58:33.279Z,35.40
2023-03-11T13:01:25.988Z,36.10
2023-03-11T13:04:22.119Z,36.30
2023-03-11T13:07:33.529Z,35.90
2023-03-11T13:10:06.831Z,34.70
2023-03-11T13:12:45.464Z,35.60
2023-03-11T13:15:42.935Z,36.50
2023-03-11T13:18:18.894Z,36.20
2023-03-11T13:20:57.006Z,36.50
2023-03-11T13:23:35.527Z,36.20
2023-03-11T13:26:41.492Z,34.40
2023-03-11T13:29:47.769Z,34.60
2023-03-11T13:32:52.250Z,34.70
2023-03-11T13:35:34.742Z,35.00
2023-03-11T13:38:21.752Z,35.20
2023-03-11T13:40:52.499Z,35.20
2023-03-11T13:43:22.356Z,35.70
2023-03-11T13:45:54.821Z,35.60
2023-03-11T13:48:29.785Z,35.70
2023-03-11T13:51:01.921Z,35.90
2023-03-11T13:53:33.403Z,36.10
2023-03-11T13:56:01.488Z,36.20
2023-03-11T13:58:30.006Z,36.30
2023-03-11T14:01:00.056Z,36.30
2023-03-11T14:03:33.571Z,36.50
2023-03-11T14:06:04.945Z,36.60
2023-03-11T14:08:35.363Z,36.80
2023-03-11T14:11:04.858Z,36.80
2023-03-11T14:13:34.142Z,36.80
2023-03-11T14:16:05.569Z,36.50
2023-03-11T14:18:38.745Z,36.70
2023-03-11T14:21:12.615Z,36.70
2023-03-11T14:23:43.523Z,37.00
2023-03-11T14:26:15.204Z,37.20
2023-03-11T14:28:47.639Z,36.90
2023-03-11T14:31:30.455Z,35.80
2023-03-11T14:34:04.463Z,35.30
2023-03-11T14:36:41.344Z,35.20
2023-03-11T14:39:31.468Z,34.70
2023-03-11T14:42:18.722Z,34.00
2023-03-11T14:44:50.846Z,34.10
2023-03-11T14:47:25.943Z,34.70
2023-03-11T14:49:56.138Z,35.10
2023-03-11T14:52:33.083Z,35.30
2023-03-11T14:55:01.637Z,34.80
2023-03-11T14:57:38.315Z,35.20
2023-03-11T15:00:15.983Z,34.90
2023-03-11T15:03:01.105Z,34.60
2023-03-11T15:05:36.714Z,33.90
2023-03-11T15:08:07.310Z,33.80
2023-03-11T15:10:37.033Z,34.10
2023-03-11T15:13:07.606Z,34.20
2023-03-11T15:15:35.890Z,34.10
2023-03-11T15:18:04.465Z,34.10
2023-03-11T15:20:36.180Z,34.00
2023-03-11T15:23:05.986Z,33.90
2023-03-11T15:25:37.640Z,34.00
2023-03-11T15:28:22.000Z,33.90
2023-03-11T15:30:50.257Z,33.60
2023-03-11T15:33:23.285Z,34.00
2023-03-11T15:35:52.799Z,34.00
2023-03-11T15:38:23.559Z,34.40
2023-03-11T15:40:54.951Z,34.60
2023-03-11T15:43:27.705Z,34.70
2023-03-11T15:45:57.358Z,34.70
2023-03-11T15:48:29.119Z,34.60
2023-03-11T15:50:59.930Z,34.60
2023-03-11T15:53:30.066Z,34.50
2023-03-11T15:56:07.307Z,34.30
2023-03-11T15:58:38.220Z,33.80
2023-03-11T16:01:06.573Z,33.50
2023-03-11T16:03:34.653Z,32.60
2023-03-11T16:06:03.991Z,33.10
2023-03-11T16:08:32.019Z,33.20
2023-03-11T16:10:59.978Z,33.90
2023-03-11T16:13:28.252Z,33.50
2023-03-11T16:15:56.203Z,33.60
2023-03-11T16:18:24.286Z,33.70
2023-03-11T16:20:55.017Z,33.70
2023-03-11T16:23:26.816Z,33.90
2023-03-11T16:25:59.293Z,34.10
2023-03-11T16:28:27.677Z,34.20
2023-03-11T16:30:55.960Z,34.30
2023-03-11T16:33:24.300Z,34.30
2023-03-11T16:35:52.363Z,34.20
2023-03-11T16:38:23.159Z,34.20
2023-03-11T16:40:57.983Z,34.20
2023-03-11T16:43:26.684Z,34.00
2023-03-11T16:45:54.934Z,34.10
2023-03-11T16:48:23.596Z,34.20
2023-03-11T16:50:52.610Z,34.10
2023-03-11T16:53:20.837Z,34.10
2023-03-11T16:55:49.028Z,34.10
2023-03-11T16:58:18.388Z,34.10
2023-03-11T17:00:46.853Z,34.10
2023-03-11T17:03:18.242Z,34.20
2023-03-11T17:05:49.818Z,34.10
2023-03-11T17:08:18.213Z,34.30
2023-03-11T17:10:46.981Z,34.90
2023-03-11T17:13:18.999Z,34.60
2023-03-11T17:15:58.032Z,34.80
2023-03-11T17:18:26.742Z,35.20
2023-03-11T17:20:55.015Z,35.00
2023-03-11T17:23:23.398Z,35.10
2023-03-11T17:25:51.830Z,35.30
2023-03-11T17:28:19.937Z,35.40
2023-03-11T17:30:49.512Z,35.40
2023-03-11T17:33:17.712Z,35.60
2023-03-11T17:35:46.193Z,35.80
2023-03-11T17:38:16.453Z,35.90
2023-03-11T17:40:45.239Z,36.10
2023-03-11T17:43:13.189Z,36.30
2023-03-11T17:45:41.165Z,36.40
2023-03-11T17:48:10.680Z,36.50
2023-03-11T17:50:39.540Z,36.70
2023-03-11T17:53:08.094Z,36.80
2023-03-11T17:55:39.443Z,36.90
2023-03-11T17:58:07.658Z,37.00
2023-03-11T18:00:35.792Z,37.00
2023-03-11T18:03:03.862Z,37.20
2023-03-11T18:05:33.123Z,37.30
2023-03-11T18:08:01.089Z,37.50
2023-03-11T18:10:29.359Z,37.60
2023-03-11T18:12:57.756Z,37.70
2023-03-11T18:15:25.823Z,38.30
2023-03-11T18:17:57.008Z,37.90
2023-03-11T18:20:25.639Z,38.00
2023-03-11T18:22:55.948Z,38.10
2023-03-11T18:25:24.302Z,38.30
2023-03-11T18:27:53.550Z,38.40
2023-03-11T18:30:22.081Z,38.40
2023-03-11T18:32:50.661Z,38.50
2023-03-11T18:35:19.023Z,38.60
2023-03-11T18:37:46.912Z,38.70
2023-03-11T18:40:16.494Z,38.70
2023-03-11T18:42:44.345Z,38.80
2023-03-11T18:45:14.002Z,38.90
2023-03-11T18:47:41.920Z,39.00
2023-03-11T18:50:11.601Z,39.10
2023-03-11T18:52:39.871Z,39.20
2023-03-11T18:55:08.204Z,39.20
2023-03-11T18:57:40.733Z,39.30
2023-03-11T19:00:11.186Z,39.50
2023-03-11T19:02:39.344Z,39.50
2023-03-11T19:05:08.232Z,39.60
2023-03-11T19:07:36.452Z,39.60
2023-03-11T19:10:04.581Z,39.60
2023-03-11T19:12:34.384Z,39.80
2023-03-11T19:15:03.848Z,39.80
2023-03-11T19:17:32.191Z,39.90
2023-03-11T19:20:00.198Z,40.00
2023-03-11T19:22:28.501Z,40.10
2023-03-11T19:24:56.495Z,40.10
2023-03-11T19:27:24.486Z,40.10
2023-03-11T19:29:52.979Z,40.20
2023-03-11T19:32:22.654Z,40.40
2023-03-11T19:34:50.574Z,40.50
2023-03-11T19:37:18.576Z,40.60
2023-03-11T19:39:46.519Z,40.70
2023-03-11T19:42:14.628Z,40.60
2023-03-11T19:44:42.673Z,40.80
2023-03-11T19:47:11.319Z,40.80
2023-03-11T19:49:40.556Z,40.90
2023-03-11T19:52:09.858Z,41.00
2023-03-11T19:54:37.796Z,41.00
2023-03-11T19:57:05.961Z,41.00
2023-03-11T19:59:33.933Z,41.10
2023-03-11T20:02:03.109Z,41.30
2023-03-11T20:04:31.478Z,41.20
2023-03-11T20:07:00.802Z,41.30
2023-03-11T20:09:29.161Z,41.30
2023-03-11T20:11:57.162Z,41.40
2023-03-11T20:14:25.112Z,41.50
2023-03-11T20:16:53.906Z,41.60
2023-03-11T20:19:22.306Z,41.60
2023-03-11T20:21:50.503Z,41.70
2023-03-11T20:24:19.905Z,41.70
2023-03-11T20:26:50.038Z,41.80
2023-03-11T20:29:19.880Z,41.80
2023-03-11T20:31:47.838Z,41.80
2023-03-11T20:34:16.196Z,42.00
2023-03-11T20:36:44.114Z,42.00
2023-03-11T20:39:12.336Z,42.00
2023-03-11T20:41:42.370Z,42.10
2023-03-11T20:44:13.506Z,42.10
2023-03-11T20:46:41.872Z,42.10
2023-03-11T20:49:10.395Z,42.10
2023-03-11T20:51:41.422Z,42.20
2023-03-11T20:54:10.032Z,42.30
2023-03-11T20:56:37.997Z,42.40
2023-03-11T20:59:07.755Z,42.40
2023-03-11T21:01:36.465Z,42.50
2023-03-11T21:04:04.773Z,42.50
2023-03-11T21:06:35.076Z,42.50
2023-03-11T21:09:05.781Z,42.50
2023-03-11T21:11:34.896Z,42.60
2023-03-11T21:14:03.313Z,42.60
2023-03-11T21:16:33.372Z,42.70
2023-03-11T21:19:05.580Z,42.70
2023-03-11T21:21:33.979Z,42.70
2023-03-11T21:24:02.231Z,42.70
2023-03-11T21:26:30.708Z,42.80
2023-03-11T21:28:58.656Z,42.80
2023-03-11T21:31:29.239Z,42.90
2023-03-11T21:34:01.194Z,43.00
2023-03-11T21:36:29.961Z,43.00
2023-03-11T21:38:58.094Z,43.10
2023-03-11T21:41:27.640Z,43.10
2023-03-11T21:43:57.671Z,43.20
2023-03-11T21:46:27.459Z,43.20
2023-03-11T21:48:56.117Z,43.20
2023-03-11T21:51:25.802Z,43.20
2023-03-11T21:53:53.935Z,43.30
2023-03-11T21:56:22.077Z,43.40
2023-03-11T21:58:50.305Z,43.40
2023-03-11T22:01:18.949Z,43.50
2023-03-11T22:03:48.021Z,43.50
2023-03-11T22:06:16.553Z,43.50
2023-03-11T22:08:45.955Z,43.60
2023-03-11T22:11:18.470Z,43.60
2023-03-11T22:13:47.181Z,43.70
2023-03-11T22:16:15.661Z,43.70
2023-03-11T22:18:43.803Z,43.70
2023-03-11T22:21:12.120Z,43.70
2023-03-11T22:23:39.954Z,43.80
2023-03-11T22:26:09.476Z,43.90
2023-03-11T22:28:37.377Z,43.90
2023-03-11T22:31:07.961Z,44.00
2023-03-11T22:33:36.052Z,44.10
2023-03-11T22:36:04.930Z,44.10
2023-03-11T22:38:34.162Z,44.20
2023-03-11T22:41:04.904Z,44.20
2023-03-11T22:43:34.986Z,44.20
2023-03-11T22:46:04.648Z,44.20
2023-03-11T22:48:32.816Z,44.20
2023-03-11T22:51:02.074Z,44.70
2023-03-11T22:53:30.181Z,44.30
2023-03-11T22:55:58.155Z,44.30
2023-03-11T22:58:26.187Z,44.40
2023-03-11T23:00:55.965Z,44.40
2023-03-11T23:03:23.947Z,44.50
2023-03-11T23:05:52.241Z,44.50
2023-03-11T23:08:20.166Z,44.50
2023-03-11T23:10:49.113Z,44.60
2023-03-11T23:13:17.556Z,44.70
2023-03-11T23:15:47.283Z,44.80
2023-03-11T23:18:17.696Z,44.90
2023-03-11T23:20:46.310Z,44.90
2023-03-11T23:23:14.912Z,45.00
2023-03-11T23:25:43.121Z,45.00
2023-03-11T23:28:11.067Z,45.00
2023-03-11T23:30:41.116Z,45.10
2023-03-11T23:33:09.268Z,45.10
2023-03-11T23:35:41.473Z,45.10
2023-03-11T23:38:09.642Z,45.20
2023-03-11T23:40:37.723Z,45.20
2023-03-11T23:43:05.755Z,45.20
2023-03-11T23:45:33.660Z,45.30
2023-03-11T23:48:01.462Z,45.30
2023-03-11T23:50:29.620Z,45.30
2023-03-11T23:52:58.858Z,45.40
2023-03-11T23:55:27.662Z,45.50
2023-03-11T23:57:55.483Z,45.50
